sensor_id;sensor_type;location;lat;lon;timestamp;pressure;altitude;pressure_sealevel;temperature;humidity
77410;BME280;66481;51.332;22.804;2023-05-14T00:00:22;100280.81;;;7.17;81.02
77410;BME280;66481;51.332;22.804;2023-05-14T00:04:43;100284.81;;;7.24;79.75
77410;BME280;66481;51.332;22.804;2023-05-14T00:08:44;100283.22;;;7.04;79.42
77410;BME280;66481;51.332;22.804;2023-05-14T00:12:45;100282.88;;;6.93;81.68
77410;BME280;66481;51.332;22.804;2023-05-14T00:16:46;100287.06;;;6.97;83.14
77410;BME280;66481;51.332;22.804;2023-05-14T00:20:47;100279.22;;;6.95;83.24
77410;BME280;66481;51.332;22.804;2023-05-14T00:24:48;100276.94;;;7.07;82.37
77410;BME280;66481;51.332;22.804;2023-05-14T00:28:49;100281.88;;;6.95;83.04
77410;BME280;66481;51.332;22.804;2023-05-14T00:32:51;100283.50;;;6.98;83.35
77410;BME280;66481;51.332;22.804;2023-05-14T00:36:52;100279.78;;;6.85;84.14
77410;BME280;66481;51.332;22.804;2023-05-14T00:40:54;100278.78;;;6.87;83.63
77410;BME280;66481;51.332;22.804;2023-05-14T00:44:55;100279.25;;;6.59;86.54
77410;BME280;66481;51.332;22.804;2023-05-14T00:48:57;100272.72;;;6.49;86.85
77410;BME280;66481;51.332;22.804;2023-05-14T00:52:59;100278.34;;;6.60;86.08
77410;BME280;66481;51.332;22.804;2023-05-14T00:57:00;100271.38;;;6.59;84.99
77410;BME280;66481;51.332;22.804;2023-05-14T01:01:01;100270.84;;;6.52;84.53
77410;BME280;66481;51.332;22.804;2023-05-14T01:05:03;100275.38;;;6.49;85.24
77410;BME280;66481;51.332;22.804;2023-05-14T01:09:08;100268.22;;;6.52;85.87
77410;BME280;66481;51.332;22.804;2023-05-14T01:17:55;100277.03;;;6.32;84.85
77410;BME280;66481;51.332;22.804;2023-05-14T01:21:59;100273.41;;;6.16;86.37
77410;BME280;66481;51.332;22.804;2023-05-14T01:26:00;100282.72;;;6.04;87.18
77410;BME280;66481;51.332;22.804;2023-05-14T01:30:27;100287.03;;;6.05;88.36
77410;BME280;66481;51.332;22.804;2023-05-14T01:34:29;100273.66;;;5.91;88.58
77410;BME280;66481;51.332;22.804;2023-05-14T01:38:31;100268.72;;;5.83;89.41
77410;BME280;66481;51.332;22.804;2023-05-14T01:42:33;100272.84;;;5.70;87.82
77410;BME280;66481;51.332;22.804;2023-05-14T01:46:35;100270.63;;;6.00;88.98
77410;BME280;66481;51.332;22.804;2023-05-14T01:50:35;100282.44;;;5.90;88.84
77410;BME280;66481;51.332;22.804;2023-05-14T01:54:39;100271.72;;;5.96;91.02
77410;BME280;66481;51.332;22.804;2023-05-14T01:58:40;100269.66;;;6.02;90.62
77410;BME280;66481;51.332;22.804;2023-05-14T02:02:40;100274.72;;;6.44;89.29
77410;BME280;66481;51.332;22.804;2023-05-14T02:06:41;100279.16;;;6.43;89.05
77410;BME280;66481;51.332;22.804;2023-05-14T02:10:42;100275.78;;;5.82;90.12
77410;BME280;66481;51.332;22.804;2023-05-14T02:14:43;100276.81;;;5.59;91.52
77410;BME280;66481;51.332;22.804;2023-05-14T02:18:44;100260.69;;;6.07;91.03
77410;BME280;66481;51.332;22.804;2023-05-14T02:22:45;100268.25;;;6.14;89.89
77410;BME280;66481;51.332;22.804;2023-05-14T02:26:46;100262.75;;;6.00;89.41
77410;BME280;66481;51.332;22.804;2023-05-14T02:30:47;100266.03;;;6.05;90.36
77410;BME280;66481;51.332;22.804;2023-05-14T02:34:48;100273.22;;;5.81;89.49
77410;BME280;66481;51.332;22.804;2023-05-14T02:38:49;100266.91;;;5.85;91.60
77410;BME280;66481;51.332;22.804;2023-05-14T02:42:49;100260.00;;;6.03;91.30
77410;BME280;66481;51.332;22.804;2023-05-14T02:46:50;100260.13;;;6.19;90.42
77410;BME280;66481;51.332;22.804;2023-05-14T02:50:51;100271.00;;;6.30;89.31
77410;BME280;66481;51.332;22.804;2023-05-14T02:54:52;100267.72;;;6.25;89.46
77410;BME280;66481;51.332;22.804;2023-05-14T02:58:53;100266.16;;;6.21;89.43
77410;BME280;66481;51.332;22.804;2023-05-14T03:02:54;100261.31;;;6.31;88.75
77410;BME280;66481;51.332;22.804;2023-05-14T03:06:55;100269.19;;;6.50;88.26
77410;BME280;66481;51.332;22.804;2023-05-14T03:10:57;100268.13;;;7.08;86.16
77410;BME280;66481;51.332;22.804;2023-05-14T03:14:58;100273.69;;;7.02;85.60
77410;BME280;66481;51.332;22.804;2023-05-14T03:19:00;100272.41;;;7.44;84.62
77410;BME280;66481;51.332;22.804;2023-05-14T03:23:01;100280.09;;;8.63;80.23
77410;BME280;66481;51.332;22.804;2023-05-14T03:27:02;100269.63;;;9.38;75.65
77410;BME280;66481;51.332;22.804;2023-05-14T03:31:03;100271.41;;;9.81;74.26
77410;BME280;66481;51.332;22.804;2023-05-14T03:35:04;100266.78;;;10.13;73.18
77410;BME280;66481;51.332;22.804;2023-05-14T03:39:06;100273.91;;;10.54;71.87
77410;BME280;66481;51.332;22.804;2023-05-14T03:43:07;100273.41;;;10.89;68.91
77410;BME280;66481;51.332;22.804;2023-05-14T03:47:08;100266.63;;;11.51;68.62
77410;BME280;66481;51.332;22.804;2023-05-14T03:51:09;100267.59;;;12.01;66.64
77410;BME280;66481;51.332;22.804;2023-05-14T03:55:10;100262.50;;;12.59;65.15
77410;BME280;66481;51.332;22.804;2023-05-14T03:59:11;100262.38;;;13.09;64.43
77410;BME280;66481;51.332;22.804;2023-05-14T04:03:12;100266.06;;;12.95;61.77
77410;BME280;66481;51.332;22.804;2023-05-14T04:07:13;100275.09;;;12.68;62.40
77410;BME280;66481;51.332;22.804;2023-05-14T04:11:14;100270.06;;;12.52;61.12
77410;BME280;66481;51.332;22.804;2023-05-14T04:15:15;100264.88;;;12.99;60.07
77410;BME280;66481;51.332;22.804;2023-05-14T04:19:16;100265.13;;;13.31;60.47
77410;BME280;66481;51.332;22.804;2023-05-14T04:23:17;100272.69;;;13.83;58.40
77410;BME280;66481;51.332;22.804;2023-05-14T04:27:21;100260.78;;;14.32;56.90
77410;BME280;66481;51.332;22.804;2023-05-14T04:31:21;100263.53;;;14.64;55.69
77410;BME280;66481;51.332;22.804;2023-05-14T04:35:23;100259.00;;;15.51;53.02
77410;BME280;66481;51.332;22.804;2023-05-14T04:39:24;100257.94;;;15.84;51.85
77410;BME280;66481;51.332;22.804;2023-05-14T04:43:25;100242.44;;;16.79;49.72
77410;BME280;66481;51.332;22.804;2023-05-14T04:47:26;100246.75;;;17.28;47.09
77410;BME280;66481;51.332;22.804;2023-05-14T04:51:27;100249.75;;;16.77;48.12
77410;BME280;66481;51.332;22.804;2023-05-14T04:55:28;100251.25;;;17.95;45.59
77410;BME280;66481;51.332;22.804;2023-05-14T04:59:30;100246.69;;;18.33;45.34
77410;BME280;66481;51.332;22.804;2023-05-14T05:03:31;100237.28;;;19.19;42.42
77410;BME280;66481;51.332;22.804;2023-05-14T05:07:32;100246.09;;;19.55;41.61
77410;BME280;66481;51.332;22.804;2023-05-14T05:11:33;100240.06;;;18.55;42.54
77410;BME280;66481;51.332;22.804;2023-05-14T05:15:34;100233.34;;;20.26;38.50
77410;BME280;66481;51.332;22.804;2023-05-14T05:19:35;100234.50;;;20.15;38.85
77410;BME280;66481;51.332;22.804;2023-05-14T05:23:36;100232.00;;;20.22;38.88
77410;BME280;66481;51.332;22.804;2023-05-14T05:27:38;100226.28;;;20.17;38.36
77410;BME280;66481;51.332;22.804;2023-05-14T05:31:40;100234.78;;;19.69;39.75
77410;BME280;66481;51.332;22.804;2023-05-14T05:35:41;100237.56;;;20.28;37.12
77410;BME280;66481;51.332;22.804;2023-05-14T05:39:43;100229.56;;;22.16;36.60
77410;BME280;66481;51.332;22.804;2023-05-14T05:43:45;100229.53;;;22.56;34.45
77410;BME280;66481;51.332;22.804;2023-05-14T05:47:46;100230.09;;;23.35;33.74
77410;BME280;66481;51.332;22.804;2023-05-14T05:51:47;100224.78;;;24.31;32.98
77410;BME280;66481;51.332;22.804;2023-05-14T05:56:07;100227.25;;;23.96;33.15
77410;BME280;66481;51.332;22.804;2023-05-14T06:00:08;100217.56;;;24.75;30.73
77410;BME280;66481;51.332;22.804;2023-05-14T06:04:16;100215.19;;;26.06;29.45
77410;BME280;66481;51.332;22.804;2023-05-14T06:08:17;100205.84;;;25.81;27.42
77410;BME280;66481;51.332;22.804;2023-05-14T06:12:18;100209.44;;;25.53;28.45
77410;BME280;66481;51.332;22.804;2023-05-14T06:16:20;100217.84;;;23.62;30.39
77410;BME280;66481;51.332;22.804;2023-05-14T06:20:21;100214.13;;;23.93;30.26
77410;BME280;66481;51.332;22.804;2023-05-14T06:24:22;100210.84;;;24.92;28.71
77410;BME280;66481;51.332;22.804;2023-05-14T06:28:23;100207.84;;;23.78;30.38
77410;BME280;66481;51.332;22.804;2023-05-14T06:32:24;100214.78;;;23.95;31.74
77410;BME280;66481;51.332;22.804;2023-05-14T06:36:25;100214.06;;;22.72;31.97
77410;BME280;66481;51.332;22.804;2023-05-14T06:40:26;100202.47;;;24.29;30.24
77410;BME280;66481;51.332;22.804;2023-05-14T06:44:27;100211.97;;;23.89;30.69
77410;BME280;66481;51.332;22.804;2023-05-14T06:48:28;100204.28;;;24.58;30.64
77410;BME280;66481;51.332;22.804;2023-05-14T06:52:30;100197.22;;;26.87;27.20
77410;BME280;66481;51.332;22.804;2023-05-14T06:56:31;100181.22;;;28.29;24.77
77410;BME280;66481;51.332;22.804;2023-05-14T07:00:33;100182.13;;;28.17;24.98
77410;BME280;66481;51.332;22.804;2023-05-14T07:04:58;100183.53;;;26.40;25.79
77410;BME280;66481;51.332;22.804;2023-05-14T07:09:00;100186.41;;;25.36;25.56
77410;BME280;66481;51.332;22.804;2023-05-14T07:13:01;100196.13;;;25.58;26.37
77410;BME280;66481;51.332;22.804;2023-05-14T07:17:03;100192.63;;;24.58;27.48
77410;BME280;66481;51.332;22.804;2023-05-14T07:21:04;100188.69;;;25.10;25.43
77410;BME280;66481;51.332;22.804;2023-05-14T07:25:06;100182.75;;;25.22;25.46
77410;BME280;66481;51.332;22.804;2023-05-14T07:29:08;100180.19;;;24.85;25.93
77410;BME280;66481;51.332;22.804;2023-05-14T07:33:10;100174.78;;;25.77;25.96
77410;BME280;66481;51.332;22.804;2023-05-14T07:37:11;100178.13;;;24.66;26.14
77410;BME280;66481;51.332;22.804;2023-05-14T07:41:13;100172.41;;;24.39;24.61
77410;BME280;66481;51.332;22.804;2023-05-14T07:45:14;100175.22;;;24.31;26.78
77410;BME280;66481;51.332;22.804;2023-05-14T07:49:16;100164.84;;;26.66;23.18
77410;BME280;66481;51.332;22.804;2023-05-14T07:53:18;100158.94;;;27.42;24.92
77410;BME280;66481;51.332;22.804;2023-05-14T07:57:19;100164.88;;;25.27;25.31
77410;BME280;66481;51.332;22.804;2023-05-14T08:01:22;100152.53;;;26.96;25.16
77410;BME280;66481;51.332;22.804;2023-05-14T08:05:24;100141.97;;;26.13;26.54
77410;BME280;66481;51.332;22.804;2023-05-14T08:09:27;100139.47;;;25.63;25.76
77410;BME280;66481;51.332;22.804;2023-05-14T08:13:28;100140.19;;;27.00;24.39
77410;BME280;66481;51.332;22.804;2023-05-14T08:17:31;100142.75;;;25.24;24.84
77410;BME280;66481;51.332;22.804;2023-05-14T08:21:32;100127.97;;;26.16;24.83
77410;BME280;66481;51.332;22.804;2023-05-14T08:25:34;100123.03;;;25.37;25.83
77410;BME280;66481;51.332;22.804;2023-05-14T08:29:36;100115.91;;;24.72;25.02
77410;BME280;66481;51.332;22.804;2023-05-14T08:33:37;100116.28;;;26.09;24.24
77410;BME280;66481;51.332;22.804;2023-05-14T08:37:38;100118.97;;;24.63;25.60
77410;BME280;66481;51.332;22.804;2023-05-14T08:41:39;100117.72;;;24.00;26.45
77410;BME280;66481;51.332;22.804;2023-05-14T08:45:41;100102.66;;;25.41;27.66
77410;BME280;66481;51.332;22.804;2023-05-14T08:49:45;100101.97;;;25.74;24.63
77410;BME280;66481;51.332;22.804;2023-05-14T08:53:48;100113.69;;;24.33;28.09
77410;BME280;66481;51.332;22.804;2023-05-14T08:57:50;100107.31;;;24.40;27.20
77410;BME280;66481;51.332;22.804;2023-05-14T09:01:52;100103.41;;;24.50;26.18
77410;BME280;66481;51.332;22.804;2023-05-14T09:06:19;100100.78;;;25.41;26.63
77410;BME280;66481;51.332;22.804;2023-05-14T09:10:21;100086.97;;;25.84;25.13
77410;BME280;66481;51.332;22.804;2023-05-14T09:24:43;100080.69;;;24.94;26.95
77410;BME280;66481;51.332;22.804;2023-05-14T09:28:44;100086.56;;;24.05;28.87
77410;BME280;66481;51.332;22.804;2023-05-14T09:32:45;100082.50;;;24.15;27.12
77410;BME280;66481;51.332;22.804;2023-05-14T09:36:47;100090.75;;;24.29;26.95
77410;BME280;66481;51.332;22.804;2023-05-14T09:40:49;100114.00;;;22.59;29.04
77410;BME280;66481;51.332;22.804;2023-05-14T09:44:52;100108.38;;;22.46;27.49
77410;BME280;66481;51.332;22.804;2023-05-14T09:48:54;100089.03;;;22.80;29.85
77410;BME280;66481;51.332;22.804;2023-05-14T09:52:55;100086.50;;;22.64;27.80
77410;BME280;66481;51.332;22.804;2023-05-14T09:56:55;100086.31;;;23.18;27.36
77410;BME280;66481;51.332;22.804;2023-05-14T10:01:00;100064.84;;;22.72;29.19
77410;BME280;66481;51.332;22.804;2023-05-14T10:05:06;100062.63;;;22.76;28.61
77410;BME280;66481;51.332;22.804;2023-05-14T10:09:12;100068.94;;;22.98;29.00
77410;BME280;66481;51.332;22.804;2023-05-14T10:13:14;100061.41;;;23.53;29.30
77410;BME280;66481;51.332;22.804;2023-05-14T10:17:20;100057.81;;;23.31;28.40
77410;BME280;66481;51.332;22.804;2023-05-14T10:21:21;100077.53;;;22.48;28.41
77410;BME280;66481;51.332;22.804;2023-05-14T10:25:23;100069.56;;;22.55;29.15
77410;BME280;66481;51.332;22.804;2023-05-14T10:29:35;100076.28;;;22.36;27.40
77410;BME280;66481;51.332;22.804;2023-05-14T10:33:47;100076.81;;;22.31;27.26
77410;BME280;66481;51.332;22.804;2023-05-14T10:37:50;100069.56;;;21.86;30.05
77410;BME280;66481;51.332;22.804;2023-05-14T10:41:51;100058.84;;;22.24;28.10
77410;BME280;66481;51.332;22.804;2023-05-14T10:45:52;100049.56;;;22.03;29.28
77410;BME280;66481;51.332;22.804;2023-05-14T10:50:04;100053.06;;;22.27;28.81
77410;BME280;66481;51.332;22.804;2023-05-14T10:54:07;100032.94;;;22.14;28.73
77410;BME280;66481;51.332;22.804;2023-05-14T10:58:11;100034.53;;;22.32;30.31
77410;BME280;66481;51.332;22.804;2023-05-14T11:02:22;100030.81;;;21.55;28.51
77410;BME280;66481;51.332;22.804;2023-05-14T11:06:25;100032.56;;;22.03;29.66
77410;BME280;66481;51.332;22.804;2023-05-14T11:10:28;100012.72;;;21.95;29.88
77410;BME280;66481;51.332;22.804;2023-05-14T11:14:29;100022.84;;;21.93;30.36
77410;BME280;66481;51.332;22.804;2023-05-14T11:18:33;100006.94;;;22.45;31.57
77410;BME280;66481;51.332;22.804;2023-05-14T11:22:38;99982.38;;;22.54;27.95
77410;BME280;66481;51.332;22.804;2023-05-14T11:26:40;99987.88;;;22.23;29.16
77410;BME280;66481;51.332;22.804;2023-05-14T11:30:42;99980.53;;;22.40;27.07
77410;BME280;66481;51.332;22.804;2023-05-14T11:34:44;99985.63;;;22.35;28.51
77410;BME280;66481;51.332;22.804;2023-05-14T11:38:47;99975.38;;;21.92;26.39
77410;BME280;66481;51.332;22.804;2023-05-14T11:42:50;99958.34;;;22.15;28.27
77410;BME280;66481;51.332;22.804;2023-05-14T11:46:56;99966.78;;;22.12;27.70
77410;BME280;66481;51.332;22.804;2023-05-14T11:50:58;99973.88;;;21.67;27.70
77410;BME280;66481;51.332;22.804;2023-05-14T11:54:59;99957.94;;;21.80;30.48
77410;BME280;66481;51.332;22.804;2023-05-14T11:59:01;99960.28;;;21.60;29.27
77410;BME280;66481;51.332;22.804;2023-05-14T12:03:02;99941.84;;;21.72;28.52
77410;BME280;66481;51.332;22.804;2023-05-14T12:07:11;99935.16;;;22.06;28.78
77410;BME280;66481;51.332;22.804;2023-05-14T12:11:13;99923.09;;;21.55;31.39
77410;BME280;66481;51.332;22.804;2023-05-14T12:15:14;99907.25;;;21.98;28.81
77410;BME280;66481;51.332;22.804;2023-05-14T12:19:19;99926.47;;;21.95;27.58
77410;BME280;66481;51.332;22.804;2023-05-14T12:23:28;99921.66;;;21.68;27.92
77410;BME280;66481;51.332;22.804;2023-05-14T12:27:29;99914.66;;;21.58;27.36
77410;BME280;66481;51.332;22.804;2023-05-14T12:31:32;99893.50;;;21.93;30.11
77410;BME280;66481;51.332;22.804;2023-05-14T12:35:34;99900.97;;;22.21;27.85
77410;BME280;66481;51.332;22.804;2023-05-14T12:39:36;99883.13;;;21.67;28.76
77410;BME280;66481;51.332;22.804;2023-05-14T12:43:41;99901.44;;;22.10;29.64
77410;BME280;66481;51.332;22.804;2023-05-14T12:47:42;99880.78;;;22.02;31.44
77410;BME280;66481;51.332;22.804;2023-05-14T12:51:44;99892.41;;;22.17;30.26
77410;BME280;66481;51.332;22.804;2023-05-14T12:55:47;99880.97;;;21.63;28.35
77410;BME280;66481;51.332;22.804;2023-05-14T12:59:49;99886.63;;;21.53;28.52
77410;BME280;66481;51.332;22.804;2023-05-14T13:03:50;99868.19;;;21.65;29.12
77410;BME280;66481;51.332;22.804;2023-05-14T13:07:52;99870.19;;;22.01;30.32
77410;BME280;66481;51.332;22.804;2023-05-14T13:11:53;99856.72;;;22.01;28.45
77410;BME280;66481;51.332;22.804;2023-05-14T13:15:54;99878.09;;;21.87;28.54
77410;BME280;66481;51.332;22.804;2023-05-14T13:19:56;99868.34;;;21.63;31.28
77410;BME280;66481;51.332;22.804;2023-05-14T13:23:57;99863.31;;;21.60;29.47
77410;BME280;66481;51.332;22.804;2023-05-14T13:27:58;99849.16;;;21.81;33.59
77410;BME280;66481;51.332;22.804;2023-05-14T13:32:00;99852.47;;;21.45;30.15
77410;BME280;66481;51.332;22.804;2023-05-14T13:36:02;99850.22;;;21.95;30.58
77410;BME280;66481;51.332;22.804;2023-05-14T13:40:05;99843.66;;;21.74;30.70
77410;BME280;66481;51.332;22.804;2023-05-14T13:44:09;99857.59;;;21.63;30.82
77410;BME280;66481;51.332;22.804;2023-05-14T13:48:10;99852.00;;;21.41;29.85
77410;BME280;66481;51.332;22.804;2023-05-14T13:52:11;99845.47;;;20.81;32.28
77410;BME280;66481;51.332;22.804;2023-05-14T13:56:13;99835.03;;;20.87;30.75
77410;BME280;66481;51.332;22.804;2023-05-14T14:00:14;99816.63;;;21.45;31.37
77410;BME280;66481;51.332;22.804;2023-05-14T14:04:16;99821.03;;;21.46;32.78
77410;BME280;66481;51.332;22.804;2023-05-14T14:08:18;99810.06;;;21.47;29.19
77410;BME280;66481;51.332;22.804;2023-05-14T14:12:19;99802.81;;;21.86;32.19
77410;BME280;66481;51.332;22.804;2023-05-14T14:16:20;99799.63;;;21.67;29.83
77410;BME280;66481;51.332;22.804;2023-05-14T14:20:21;99810.53;;;21.28;29.76
77410;BME280;66481;51.332;22.804;2023-05-14T14:24:22;99796.97;;;21.21;30.66
77410;BME280;66481;51.332;22.804;2023-05-14T14:28:23;99799.13;;;21.49;31.38
77410;BME280;66481;51.332;22.804;2023-05-14T14:32:25;99792.22;;;21.23;30.73
77410;BME280;66481;51.332;22.804;2023-05-14T14:36:26;99765.66;;;21.43;30.84
77410;BME280;66481;51.332;22.804;2023-05-14T14:40:34;99773.41;;;21.61;30.68
77410;BME280;66481;51.332;22.804;2023-05-14T14:44:35;99759.59;;;21.64;30.03
77410;BME280;66481;51.332;22.804;2023-05-14T14:48:36;99759.34;;;21.74;29.97
77410;BME280;66481;51.332;22.804;2023-05-14T14:52:38;99764.91;;;21.72;29.71
77410;BME280;66481;51.332;22.804;2023-05-14T14:56:40;99753.28;;;21.57;28.39
77410;BME280;66481;51.332;22.804;2023-05-14T15:00:42;99755.22;;;21.48;29.34
77410;BME280;66481;51.332;22.804;2023-05-14T15:04:43;99759.03;;;21.31;29.50
77410;BME280;66481;51.332;22.804;2023-05-14T15:08:45;99722.28;;;21.38;29.09
77410;BME280;66481;51.332;22.804;2023-05-14T15:12:46;99726.03;;;21.37;28.94
77410;BME280;66481;51.332;22.804;2023-05-14T15:16:47;99728.09;;;21.50;29.69
77410;BME280;66481;51.332;22.804;2023-05-14T15:20:48;99723.13;;;21.23;31.37
77410;BME280;66481;51.332;22.804;2023-05-14T15:24:49;99723.00;;;21.17;29.04
77410;BME280;66481;51.332;22.804;2023-05-14T15:28:50;99731.34;;;20.84;30.61
77410;BME280;66481;51.332;22.804;2023-05-14T15:32:51;99733.28;;;20.90;30.72
77410;BME280;66481;51.332;22.804;2023-05-14T15:36:53;99734.00;;;21.07;29.45
77410;BME280;66481;51.332;22.804;2023-05-14T15:40:54;99717.34;;;21.12;28.55
77410;BME280;66481;51.332;22.804;2023-05-14T15:44:55;99702.13;;;21.19;28.67
77410;BME280;66481;51.332;22.804;2023-05-14T15:48:56;99693.41;;;21.17;30.02
77410;BME280;66481;51.332;22.804;2023-05-14T15:52:59;99712.78;;;21.12;28.82
77410;BME280;66481;51.332;22.804;2023-05-14T15:57:00;99694.50;;;21.08;29.60
77410;BME280;66481;51.332;22.804;2023-05-14T16:01:01;99698.09;;;21.00;28.52
77410;BME280;66481;51.332;22.804;2023-05-14T16:05:03;99686.03;;;20.96;28.77
77410;BME280;66481;51.332;22.804;2023-05-14T16:09:04;99676.28;;;20.95;28.63
77410;BME280;66481;51.332;22.804;2023-05-14T16:13:05;99671.41;;;20.90;29.24
77410;BME280;66481;51.332;22.804;2023-05-14T16:17:07;99657.31;;;20.73;30.05
77410;BME280;66481;51.332;22.804;2023-05-14T16:21:08;99662.75;;;20.57;30.42
77410;BME280;66481;51.332;22.804;2023-05-14T16:25:09;99657.13;;;20.43;30.54
77410;BME280;66481;51.332;22.804;2023-05-14T16:29:10;99656.03;;;20.29;31.61
77410;BME280;66481;51.332;22.804;2023-05-14T16:33:11;99654.38;;;20.05;32.65
77410;BME280;66481;51.332;22.804;2023-05-14T16:37:13;99661.84;;;19.87;32.85
77410;BME280;66481;51.332;22.804;2023-05-14T16:41:15;99652.50;;;19.75;33.61
77410;BME280;66481;51.332;22.804;2023-05-14T16:45:16;99651.22;;;19.46;34.17
77410;BME280;66481;51.332;22.804;2023-05-14T16:49:18;99646.25;;;19.26;34.62
77410;BME280;66481;51.332;22.804;2023-05-14T16:53:25;99640.41;;;19.06;35.68
77410;BME280;66481;51.332;22.804;2023-05-14T16:57:29;99643.28;;;18.88;36.13
77410;BME280;66481;51.332;22.804;2023-05-14T17:01:30;99650.63;;;18.70;36.28
77410;BME280;66481;51.332;22.804;2023-05-14T17:05:33;99642.06;;;18.50;36.55
77410;BME280;66481;51.332;22.804;2023-05-14T17:09:35;99640.34;;;18.32;37.29
77410;BME280;66481;51.332;22.804;2023-05-14T17:13:37;99636.31;;;18.20;37.31
77410;BME280;66481;51.332;22.804;2023-05-14T17:17:46;99632.78;;;18.03;39.02
77410;BME280;66481;51.332;22.804;2023-05-14T17:21:48;99623.47;;;17.81;39.28
77410;BME280;66481;51.332;22.804;2023-05-14T17:25:49;99625.59;;;17.69;39.70
77410;BME280;66481;51.332;22.804;2023-05-14T17:29:50;99630.19;;;17.51;40.52
77410;BME280;66481;51.332;22.804;2023-05-14T17:33:52;99630.28;;;17.33;41.27
77410;BME280;66481;51.332;22.804;2023-05-14T17:37:53;99630.59;;;17.29;40.42
77410;BME280;66481;51.332;22.804;2023-05-14T17:41:54;99608.75;;;17.08;42.28
77410;BME280;66481;51.332;22.804;2023-05-14T17:45:56;99612.72;;;17.04;42.12
77410;BME280;66481;51.332;22.804;2023-05-14T17:49:58;99614.03;;;16.82;42.85
77410;BME280;66481;51.332;22.804;2023-05-14T17:54:00;99609.50;;;16.74;43.33
77410;BME280;66481;51.332;22.804;2023-05-14T17:58:02;99612.72;;;16.60;43.73
77410;BME280;66481;51.332;22.804;2023-05-14T18:02:04;99614.28;;;16.44;44.45
77410;BME280;66481;51.332;22.804;2023-05-14T18:06:05;99618.31;;;16.30;44.43
77410;BME280;66481;51.332;22.804;2023-05-14T18:10:08;99618.28;;;16.12;45.50
77410;BME280;66481;51.332;22.804;2023-05-14T18:14:09;99611.78;;;15.97;45.33
77410;BME280;66481;51.332;22.804;2023-05-14T18:18:11;99604.84;;;15.86;45.58
77410;BME280;66481;51.332;22.804;2023-05-14T18:22:14;99613.31;;;15.72;46.60
77410;BME280;66481;51.332;22.804;2023-05-14T18:26:16;99608.25;;;15.51;47.52
77410;BME280;66481;51.332;22.804;2023-05-14T18:30:18;99615.16;;;15.44;46.82
77410;BME280;66481;51.332;22.804;2023-05-14T18:34:21;99615.56;;;15.49;47.45
77410;BME280;66481;51.332;22.804;2023-05-14T18:38:24;99620.81;;;15.31;47.85
77410;BME280;66481;51.332;22.804;2023-05-14T18:42:32;99616.50;;;15.10;48.20
77410;BME280;66481;51.332;22.804;2023-05-14T18:46:34;99610.28;;;14.72;50.86
77410;BME280;66481;51.332;22.804;2023-05-14T18:50:40;99619.53;;;14.39;52.78
77410;BME280;66481;51.332;22.804;2023-05-14T18:54:44;99601.44;;;14.33;53.27
77410;BME280;66481;51.332;22.804;2023-05-14T18:58:47;99607.19;;;14.38;52.47
77410;BME280;66481;51.332;22.804;2023-05-14T19:02:50;99599.50;;;14.54;50.94
77410;BME280;66481;51.332;22.804;2023-05-14T19:06:52;99599.94;;;14.59;51.10
77410;BME280;66481;51.332;22.804;2023-05-14T19:10:55;99594.16;;;14.54;51.52
77410;BME280;66481;51.332;22.804;2023-05-14T19:14:57;99599.91;;;14.49;51.46
77410;BME280;66481;51.332;22.804;2023-05-14T19:18:59;99597.09;;;14.51;50.63
77410;BME280;66481;51.332;22.804;2023-05-14T19:23:02;99590.13;;;14.60;50.47
77410;BME280;66481;51.332;22.804;2023-05-14T19:27:08;99601.78;;;14.59;50.42
77410;BME280;66481;51.332;22.804;2023-05-14T19:31:09;99594.84;;;14.56;50.62
77410;BME280;66481;51.332;22.804;2023-05-14T19:35:11;99595.84;;;14.55;50.57
77410;BME280;66481;51.332;22.804;2023-05-14T19:39:12;99595.00;;;14.55;50.86
77410;BME280;66481;51.332;22.804;2023-05-14T19:43:15;99594.16;;;14.44;50.91
77410;BME280;66481;51.332;22.804;2023-05-14T19:47:18;99591.94;;;14.40;50.96
77410;BME280;66481;51.332;22.804;2023-05-14T19:51:20;99594.88;;;14.37;51.10
77410;BME280;66481;51.332;22.804;2023-05-14T19:55:22;99603.13;;;14.24;51.41
77410;BME280;66481;51.332;22.804;2023-05-14T19:59:26;99596.69;;;14.07;51.58
77410;BME280;66481;51.332;22.804;2023-05-14T20:03:32;99603.56;;;14.19;51.00
77410;BME280;66481;51.332;22.804;2023-05-14T20:07:34;99600.63;;;14.13;52.80
77410;BME280;66481;51.332;22.804;2023-05-14T20:11:37;99594.84;;;13.98;53.20
77410;BME280;66481;51.332;22.804;2023-05-14T20:15:41;99593.59;;;13.92;53.56
77410;BME280;66481;51.332;22.804;2023-05-14T20:19:44;99591.75;;;13.83;53.00
77410;BME280;66481;51.332;22.804;2023-05-14T20:23:46;99592.84;;;13.80;53.09
77410;BME280;66481;51.332;22.804;2023-05-14T20:27:49;99588.81;;;13.76;52.90
77410;BME280;66481;51.332;22.804;2023-05-14T20:31:54;99594.00;;;13.78;53.50
77410;BME280;66481;51.332;22.804;2023-05-14T20:36:13;99590.47;;;13.77;53.46
77410;BME280;66481;51.332;22.804;2023-05-14T20:40:16;99585.56;;;13.72;53.96
77410;BME280;66481;51.332;22.804;2023-05-14T20:44:17;99572.84;;;13.76;53.59
77410;BME280;66481;51.332;22.804;2023-05-14T20:48:18;99568.50;;;13.75;53.75
77410;BME280;66481;51.332;22.804;2023-05-14T20:52:21;99560.34;;;13.57;55.01
77410;BME280;66481;51.332;22.804;2023-05-14T20:56:22;99562.44;;;13.53;54.67
77410;BME280;66481;51.332;22.804;2023-05-14T21:00:23;99561.31;;;13.46;54.89
77410;BME280;66481;51.332;22.804;2023-05-14T21:04:24;99556.22;;;13.33;55.07
77410;BME280;66481;51.332;22.804;2023-05-14T21:08:26;99547.53;;;13.31;55.64
77410;BME280;66481;51.332;22.804;2023-05-14T21:12:27;99557.00;;;13.24;56.10